Main page
METAR-TAF:

METAR-TAF

Airports :

Tunis–Carthage International Airport

Tunis, Tunisia

latitude: 36-50N, longitude: 010-14E, elevation: 3 m

Current weather observation

The report was made 24 minutes ago, at 05:30 UTC
Calm wind
Temperature 25°C
Humidity 89%
Pressure 1015 hPa
Visibility 10 km or more
no clouds below 1500 m and no cumulonimbus

METAR: DTTA 250530Z 00000KT CAVOK 25/23 Q1015

Time: 06:54 (05:54 UTC)

Forecast

The report was made 6 hours and 54 minutes ago, at 23:00 UTC
Forecast valid from 25 at 00 UTC to 25 at 24 UTC
Wind 2 kt from the North
Visibility 10 km or more
Scattered clouds at a height of 3000 ft
Probability 40% :
Temporary
from 25 at 10 UTC to 25 at 20 UTC
Few clouds at a height of 2600 ft, Cumulonimbus.
thunderstorm, light rain

TAF: DTTA 242300Z 2500/2524 35002KT 9999 SCT030 PROB40 TEMPO 2510/2520 -TSRA FEW026CB

Weather observations and forecasts of more than 4000 airports (METAR and TAF reports).

The available stations are represented by yellow and red dots on the map.

Hover mouse over dot to see the name of the station.

Then click to see weather observations and forecasts.

To change the map : click on the green buttons with a black cross to zoom in, on the green button with a dash to zoom out, or on the green arrows for adjacent maps.


METAR-TAF: